createdAt,value
2024-02-04T00:01:39.745Z,9.51
2024-02-04T00:04:09.314Z,9.43
2024-02-04T00:06:40.534Z,9.32
2024-02-04T00:09:09.696Z,9.34
2024-02-04T00:11:38.352Z,9.34
2024-02-04T00:14:10.368Z,9.31
2024-02-04T00:16:42.393Z,9.26
2024-02-04T00:19:23.429Z,9.22
2024-02-04T00:21:51.445Z,9.14
2024-02-04T00:24:20.641Z,9.10
2024-02-04T00:26:50.775Z,9.05
2024-02-04T00:30:08.385Z,9.01
2024-02-04T00:40:25.087Z,8.99
2024-02-04T00:43:00.672Z,9.00
2024-02-04T00:50:15.769Z,9.00
2024-02-04T00:57:28.336Z,9.00
2024-02-04T01:01:16.493Z,9.00
2024-02-04T01:03:49.726Z,8.98
2024-02-04T01:06:57.059Z,8.96
2024-02-04T01:29:47.118Z,9.07
2024-02-04T01:36:01.402Z,9.05
2024-02-04T01:38:54.481Z,9.11
2024-02-04T01:41:47.360Z,9.11
2024-02-04T01:44:32.755Z,9.11
2024-02-04T01:47:06.168Z,9.16
2024-02-04T01:50:34.170Z,9.14
2024-02-04T01:58:14.053Z,9.07
2024-02-04T02:01:33.532Z,9.06
2024-02-04T02:09:28.151Z,8.97
2024-02-04T02:13:12.587Z,8.92
2024-02-04T02:16:39.110Z,8.88
2024-02-04T02:23:48.744Z,8.73
2024-02-04T02:26:28.587Z,8.71
2024-02-04T02:29:39.085Z,8.67
2024-02-04T02:32:32.311Z,8.65
2024-02-04T02:35:05.168Z,8.58
2024-02-04T02:41:01.237Z,8.53
2024-02-04T02:43:58.635Z,8.52
2024-02-04T02:46:57.321Z,8.50
2024-02-04T02:49:27.485Z,8.47
2024-02-04T02:51:55.810Z,8.43
2024-02-04T02:54:26.632Z,8.41
2024-02-04T02:56:57.106Z,8.42
2024-02-04T02:59:36.284Z,8.39
2024-02-04T03:02:07.233Z,8.37
2024-02-04T03:04:37.539Z,8.34
2024-02-04T03:07:11.040Z,8.32
2024-02-04T03:09:47.687Z,8.28
2024-02-04T03:12:17.046Z,8.25
2024-02-04T03:14:47.974Z,8.24
2024-02-04T03:17:22.184Z,8.23
2024-02-04T03:19:56.190Z,8.23
2024-02-04T03:22:31.817Z,8.24
2024-02-04T03:25:01.085Z,8.26
2024-02-04T03:27:30.586Z,8.24
2024-02-04T03:30:02.959Z,8.25
2024-02-04T03:32:34.967Z,8.23
2024-02-04T03:35:08.978Z,8.24
2024-02-04T03:37:54.930Z,8.24
2024-02-04T03:40:26.032Z,8.23
2024-02-04T03:42:55.472Z,8.22
2024-02-04T03:45:26.305Z,8.19
2024-02-04T03:48:06.309Z,8.20
2024-02-04T03:50:40.526Z,8.18
2024-02-04T03:53:09.911Z,8.20
2024-02-04T03:55:42.705Z,8.19
2024-02-04T03:58:14.827Z,8.20
2024-02-04T04:00:55.951Z,8.17
2024-02-04T04:03:36.260Z,8.15
2024-02-04T04:06:15.208Z,8.17
2024-02-04T04:08:46.843Z,8.21
2024-02-04T04:11:17.120Z,8.18
2024-02-04T04:13:45.970Z,8.18
2024-02-04T04:16:22.237Z,8.21
2024-02-04T04:18:55.896Z,8.23
2024-02-04T04:21:28.299Z,8.23
2024-02-04T04:23:57.842Z,8.24
2024-02-04T04:26:27.602Z,8.26
2024-02-04T04:28:58.509Z,8.25
2024-02-04T04:31:34.196Z,8.27
2024-02-04T04:34:11.892Z,8.28
2024-02-04T04:36:44.356Z,8.29
2024-02-04T04:39:12.731Z,8.29
2024-02-04T04:41:42.538Z,8.32
2024-02-04T04:44:13.179Z,8.36
2024-02-04T04:46:49.606Z,8.37
2024-02-04T04:49:23.997Z,8.39
2024-02-04T04:51:52.775Z,8.38
2024-02-04T04:54:22.881Z,8.40
2024-02-04T04:56:52.740Z,8.42
2024-02-04T04:59:21.728Z,8.42
2024-02-04T05:01:52.955Z,8.41
2024-02-04T05:04:26.947Z,8.49
2024-02-04T05:06:56.363Z,8.51
2024-02-04T05:09:28.091Z,8.53
2024-02-04T05:11:57.908Z,8.58
2024-02-04T05:14:27.716Z,8.61
2024-02-04T05:16:58.886Z,8.59
2024-02-04T05:19:30.012Z,8.63
2024-02-04T05:22:00.986Z,8.67
2024-02-04T05:24:30.372Z,8.64
2024-02-04T05:27:12.925Z,8.65
2024-02-04T05:29:41.260Z,8.69
2024-02-04T05:32:13.787Z,8.68
2024-02-04T05:34:49.345Z,8.71
2024-02-04T05:40:59.457Z,8.78
2024-02-04T05:43:35.892Z,8.72
2024-02-04T05:46:13.048Z,8.74
2024-02-04T05:48:45.988Z,8.70
2024-02-04T05:51:14.435Z,8.68
2024-02-04T05:53:42.527Z,8.73
2024-02-04T05:56:10.499Z,8.70
2024-02-04T05:58:39.305Z,8.73
2024-02-04T06:01:10.936Z,8.72
2024-02-04T06:03:39.424Z,8.72
2024-02-04T06:06:11.682Z,8.70
2024-02-04T06:08:41.559Z,8.70
2024-02-04T06:11:13.648Z,8.70
2024-02-04T06:13:46.056Z,8.72
2024-02-04T06:16:17.786Z,8.72
2024-02-04T06:18:47.650Z,8.72
2024-02-04T06:21:20.076Z,8.71
2024-02-04T06:24:05.618Z,8.73
2024-02-04T06:26:39.339Z,8.77
2024-02-04T06:29:09.890Z,8.78
2024-02-04T06:31:39.601Z,8.79
2024-02-04T06:34:08.569Z,8.81
2024-02-04T06:36:44.801Z,8.82
2024-02-04T06:39:17.667Z,8.84
2024-02-04T06:42:16.499Z,8.84
2024-02-04T06:44:48.617Z,8.83
2024-02-04T06:47:19.462Z,8.88
2024-02-04T06:50:07.217Z,8.91
2024-02-04T06:52:43.048Z,8.86
2024-02-04T06:55:48.329Z,8.90
2024-02-04T06:58:19.651Z,8.90
2024-02-04T07:00:53.989Z,8.92
2024-02-04T07:03:26.825Z,8.88
2024-02-04T07:05:55.063Z,8.91
2024-02-04T07:08:34.450Z,8.94
2024-02-04T07:11:27.828Z,8.97
2024-02-04T07:14:03.095Z,9.01
2024-02-04T07:16:31.600Z,9.00
2024-02-04T07:19:01.876Z,9.02
2024-02-04T07:21:31.505Z,9.04
2024-02-04T07:24:26.352Z,9.05
2024-02-04T07:26:54.963Z,9.07
2024-02-04T07:29:26.059Z,9.07
2024-02-04T07:32:11.873Z,9.11
2024-02-04T07:34:42.077Z,9.15
2024-02-04T07:37:10.454Z,9.18
2024-02-04T07:39:41.611Z,9.21
2024-02-04T07:42:10.519Z,9.23
2024-02-04T07:44:38.565Z,9.29
2024-02-04T07:47:09.140Z,9.28
2024-02-04T07:49:37.612Z,9.30
2024-02-04T07:52:06.516Z,9.29
2024-02-04T07:54:37.009Z,9.29
2024-02-04T07:57:08.015Z,9.24
2024-02-04T07:59:40.657Z,9.27
2024-02-04T08:02:14.244Z,9.31
2024-02-04T08:04:44.321Z,9.26
2024-02-04T08:07:16.013Z,9.24
2024-02-04T08:09:47.255Z,9.26
2024-02-04T08:12:40.374Z,9.20
2024-02-04T08:15:16.693Z,9.20
2024-02-04T08:17:45.985Z,9.22
2024-02-04T08:20:21.402Z,9.22
2024-02-04T08:27:59.263Z,9.36
2024-02-04T08:30:35.704Z,9.38
2024-02-04T08:33:06.090Z,9.41
2024-02-04T08:36:07.792Z,9.55
2024-02-04T08:39:06.256Z,9.52
2024-02-04T08:41:36.247Z,9.60
2024-02-04T08:44:05.897Z,9.68
2024-02-04T08:46:37.974Z,9.67
2024-02-04T08:49:07.387Z,9.85
2024-02-04T08:51:37.375Z,9.78
2024-02-04T08:54:08.439Z,9.98
2024-02-04T08:56:46.059Z,10.02
2024-02-04T08:59:22.381Z,10.04
2024-02-04T09:01:50.957Z,10.20
2024-02-04T09:04:25.806Z,10.16
2024-02-04T09:06:57.669Z,10.17
2024-02-04T09:09:28.536Z,10.00
2024-02-04T09:11:59.173Z,10.03
2024-02-04T09:14:32.800Z,10.18
2024-02-04T09:17:10.592Z,10.13
2024-02-04T09:19:43.176Z,10.00
2024-02-04T09:22:33.195Z,9.89
2024-02-04T09:25:09.691Z,9.80
2024-02-04T09:27:42.465Z,9.73
2024-02-04T09:30:16.780Z,9.76
2024-02-04T09:33:11.560Z,9.87
2024-02-04T09:35:43.435Z,9.96
2024-02-04T09:38:18.659Z,10.02
2024-02-04T09:41:23.605Z,10.21
2024-02-04T09:43:56.242Z,10.09
2024-02-04T09:46:28.835Z,10.21
2024-02-04T09:49:07.676Z,10.32
2024-02-04T09:52:02.508Z,10.52
2024-02-04T09:57:21.145Z,10.45
2024-02-04T09:59:59.113Z,10.54
2024-02-04T10:05:23.217Z,10.28
2024-02-04T10:16:55.938Z,10.32
2024-02-04T10:19:30.738Z,10.33
2024-02-04T10:22:10.477Z,10.45
2024-02-04T10:28:33.845Z,10.58
2024-02-04T10:35:12.484Z,10.58
2024-02-04T10:38:13.392Z,10.52
2024-02-04T10:41:11.121Z,10.78
2024-02-04T10:47:05.705Z,10.48
2024-02-04T10:53:05.515Z,10.61
2024-02-04T10:56:06.910Z,10.65
2024-02-04T10:58:45.917Z,10.84
2024-02-04T11:01:21.507Z,10.42
2024-02-04T11:04:18.006Z,10.31
2024-02-04T11:07:18.312Z,10.16
2024-02-04T11:10:24.147Z,10.15
2024-02-04T11:12:55.138Z,10.21
2024-02-04T11:15:39.932Z,10.14
2024-02-04T11:18:45.266Z,10.16
2024-02-04T11:21:44.595Z,10.41
2024-02-04T11:24:32.144Z,10.62
2024-02-04T11:27:05.661Z,10.71
2024-02-04T11:30:21.363Z,10.73
2024-02-04T11:36:09.090Z,10.52
2024-02-04T11:38:42.851Z,10.49
2024-02-04T11:41:29.232Z,10.44
2024-02-04T11:44:33.694Z,10.40
2024-02-04T11:47:02.847Z,10.25
2024-02-04T11:49:42.594Z,10.28
2024-02-04T11:57:21.298Z,10.48
2024-02-04T12:00:21.899Z,10.47
2024-02-04T12:08:57.843Z,10.30
2024-02-04T12:12:01.812Z,10.44
2024-02-04T12:15:26.785Z,10.80
2024-02-04T12:18:21.913Z,10.92
2024-02-04T12:21:15.167Z,11.42
2024-02-04T12:24:45.512Z,11.41
2024-02-04T12:28:12.972Z,11.43
2024-02-04T12:34:23.983Z,11.10
2024-02-04T12:37:10.834Z,10.85
2024-02-04T12:39:45.951Z,10.74
2024-02-04T12:42:23.388Z,10.88
2024-02-04T12:45:12.731Z,11.00
2024-02-04T12:47:46.585Z,10.99
2024-02-04T12:50:19.973Z,11.24
2024-02-04T12:53:21.703Z,10.88
2024-02-04T12:58:53.133Z,10.72
2024-02-04T13:01:29.686Z,10.78
2024-02-04T13:03:59.026Z,10.81
2024-02-04T13:06:28.469Z,10.80
2024-02-04T13:09:06.167Z,10.90
2024-02-04T13:11:37.734Z,10.91
2024-02-04T13:14:08.648Z,10.80
2024-02-04T13:16:44.230Z,10.85
2024-02-04T13:19:16.249Z,10.84
2024-02-04T13:21:50.762Z,10.96
2024-02-04T13:24:19.004Z,10.78
2024-02-04T13:26:50.816Z,10.90
2024-02-04T13:29:22.576Z,11.01
2024-02-04T13:35:09.463Z,11.03
2024-02-04T13:37:48.184Z,11.31
2024-02-04T13:40:25.005Z,11.63
2024-02-04T13:42:59.333Z,11.71
2024-02-04T13:45:33.837Z,11.95
2024-02-04T13:48:11.635Z,12.01
2024-02-04T13:50:49.336Z,11.40
2024-02-04T13:54:08.791Z,11.46
2024-02-04T14:54:42.851Z,10.61
2024-02-04T14:57:18.470Z,10.72
2024-02-04T14:59:51.662Z,10.83
2024-02-04T15:02:22.713Z,10.81
2024-02-04T15:05:00.404Z,10.76
2024-02-04T15:07:45.887Z,10.74
2024-02-04T15:10:24.381Z,10.68
2024-02-04T15:12:56.280Z,10.74
2024-02-04T15:15:40.833Z,10.59
2024-02-04T15:18:14.043Z,10.54
2024-02-04T15:20:50.361Z,10.51
2024-02-04T15:23:49.066Z,10.63
2024-02-04T15:26:26.323Z,10.66
2024-02-04T15:29:02.370Z,10.62
2024-02-04T15:34:43.837Z,10.64
2024-02-04T15:37:14.404Z,10.61
2024-02-04T15:40:49.792Z,10.61
2024-02-04T15:43:26.288Z,10.49
2024-02-04T15:46:00.336Z,10.42
2024-02-04T15:48:35.433Z,10.38
2024-02-04T15:51:13.270Z,10.38
2024-02-04T15:53:53.234Z,10.38
2024-02-04T15:56:35.951Z,10.42
2024-02-04T15:59:26.517Z,10.43
2024-02-04T16:01:56.464Z,10.41
2024-02-04T16:04:28.231Z,10.38
2024-02-04T16:07:27.777Z,10.33
2024-02-04T16:10:29.070Z,10.30
2024-02-04T16:16:19.373Z,10.20
2024-02-04T16:19:51.436Z,10.18
2024-02-04T16:22:41.175Z,10.20
2024-02-04T16:25:40.815Z,10.22
2024-02-04T16:28:15.409Z,10.24
2024-02-04T16:33:40.382Z,10.25
2024-02-04T16:36:12.353Z,10.25
2024-02-04T16:38:50.179Z,10.23
2024-02-04T16:41:25.494Z,10.21
2024-02-04T16:44:22.856Z,10.17
2024-02-04T16:47:02.174Z,10.17
2024-02-04T17:30:02.611Z,10.24
2024-02-04T17:35:33.866Z,10.20
2024-02-04T17:38:06.029Z,10.22
2024-02-04T17:44:14.151Z,10.23
2024-02-04T17:46:47.709Z,10.23
2024-02-04T17:49:19.799Z,10.25
2024-02-04T17:51:54.183Z,10.26
2024-02-04T17:59:28.781Z,10.24
2024-02-04T22:06:38.887Z,10.10
2024-02-04T22:09:26.829Z,10.12
2024-02-04T22:26:19.949Z,9.94
2024-02-04T22:29:16.277Z,9.92
2024-02-04T22:36:24.301Z,9.89
2024-02-04T22:39:49.898Z,9.84
2024-02-04T22:42:35.770Z,9.86
2024-02-04T22:45:12.159Z,9.83
2024-02-04T22:48:17.366Z,9.86
2024-02-04T22:50:53.621Z,9.84
2024-02-04T22:53:35.371Z,9.83
2024-02-04T22:56:09.839Z,9.82
2024-02-04T23:07:39.839Z,9.80
2024-02-04T23:27:29.431Z,9.65
2024-02-04T23:33:07.723Z,9.45
2024-02-04T23:35:41.106Z,9.36
2024-02-04T23:38:14.086Z,9.28
2024-02-04T23:40:52.678Z,9.25
2024-02-04T23:43:24.287Z,9.24
2024-02-04T23:45:52.987Z,9.24
2024-02-04T23:48:26.469Z,9.22
2024-02-04T23:51:22.499Z,9.17
2024-02-04T23:54:01.088Z,9.11
2024-02-04T23:57:38.358Z,9.02
